createdAt,value
2023-04-25T00:02:26.412Z,3.10
2023-04-25T00:04:53.685Z,3.60
2023-04-25T00:07:20.903Z,3.00
2023-04-25T00:09:47.928Z,4.43
2023-04-25T00:12:14.822Z,3.90
2023-04-25T00:14:41.781Z,4.10
2023-04-25T00:17:08.785Z,3.93
2023-04-25T00:19:35.834Z,3.57
2023-04-25T00:22:03.407Z,3.07
2023-04-25T00:24:30.834Z,4.03
2023-04-25T00:26:57.771Z,2.37
2023-04-25T00:29:24.763Z,4.60
2023-04-25T00:31:51.726Z,2.27
2023-04-25T00:34:18.753Z,2.33
2023-04-25T00:36:45.925Z,3.63
2023-04-25T00:39:13.214Z,3.50
2023-04-25T00:41:40.773Z,2.57
2023-04-25T00:44:11.186Z,2.63
2023-04-25T00:46:39.649Z,2.93
2023-04-25T00:49:06.591Z,3.33
2023-04-25T00:51:34.586Z,2.63
2023-04-25T00:54:02.540Z,2.40
2023-04-25T00:56:29.529Z,4.67
2023-04-25T00:58:57.590Z,1.37
2023-04-25T01:01:24.869Z,1.60
2023-04-25T01:03:52.198Z,1.60
2023-04-25T01:06:19.669Z,1.67
2023-04-25T01:08:46.649Z,1.53
2023-04-25T01:11:13.532Z,1.97
2023-04-25T01:13:40.583Z,1.40
2023-04-25T01:16:07.942Z,1.77
2023-04-25T01:18:34.924Z,2.20
2023-04-25T01:21:12.762Z,1.47
2023-04-25T01:23:41.370Z,1.23
2023-04-25T01:26:10.936Z,2.90
2023-04-25T01:28:40.562Z,1.50
2023-04-25T01:31:08.122Z,1.43
2023-04-25T01:33:35.135Z,2.20
2023-04-25T01:36:02.283Z,1.13
2023-04-25T01:38:29.396Z,2.07
2023-04-25T01:40:57.045Z,2.57
2023-04-25T01:43:24.019Z,1.13
2023-04-25T01:45:51.372Z,1.27
2023-04-25T01:48:18.605Z,1.10
2023-04-25T01:50:46.264Z,1.60
2023-04-25T01:53:15.401Z,1.90
2023-04-25T01:55:42.417Z,1.33
2023-04-25T01:58:10.929Z,1.40
2023-04-25T02:00:39.871Z,1.80
2023-04-25T02:03:07.383Z,0.83
2023-04-25T02:05:38.655Z,2.80
2023-04-25T02:08:07.909Z,2.53
2023-04-25T02:10:35.818Z,1.20
2023-04-25T02:13:03.373Z,1.37
2023-04-25T02:15:30.299Z,1.93
2023-04-25T02:17:57.286Z,1.93
2023-04-25T02:20:25.811Z,1.90
2023-04-25T02:22:52.937Z,0.73
2023-04-25T02:25:20.982Z,4.67
2023-04-25T02:27:49.061Z,1.83
2023-04-25T02:30:16.516Z,1.10
2023-04-25T02:32:43.645Z,1.23
2023-04-25T02:35:10.772Z,1.50
2023-04-25T02:37:39.783Z,1.10
2023-04-25T02:40:08.017Z,1.30
2023-04-25T02:42:35.164Z,0.97
2023-04-25T02:45:02.428Z,1.20
2023-04-25T02:47:29.674Z,1.30
2023-04-25T02:49:56.802Z,0.70
2023-04-25T02:52:23.778Z,0.83
2023-04-25T02:54:50.787Z,1.33
2023-04-25T02:57:17.746Z,1.23
2023-04-25T02:59:44.712Z,1.60
2023-04-25T03:02:11.631Z,1.20
2023-04-25T03:04:38.687Z,1.30
2023-04-25T03:07:05.911Z,1.67
2023-04-25T03:09:32.849Z,1.73
2023-04-25T03:11:59.781Z,1.80
2023-04-25T03:14:26.728Z,1.00
2023-04-25T03:16:53.691Z,0.90
2023-04-25T03:19:21.432Z,0.97
2023-04-25T03:21:48.389Z,1.67
2023-04-25T03:24:15.550Z,3.10
2023-04-25T03:26:42.543Z,2.13
2023-04-25T03:29:10.295Z,2.00
2023-04-25T03:31:37.226Z,1.60
2023-04-25T03:34:05.339Z,1.90
2023-04-25T03:36:33.698Z,1.30
2023-04-25T03:39:00.861Z,2.37
2023-04-25T03:41:28.828Z,1.67
2023-04-25T03:43:55.959Z,3.33
2023-04-25T03:46:22.951Z,2.10
2023-04-25T03:48:49.963Z,1.33
2023-04-25T03:51:16.943Z,2.03
2023-04-25T03:53:43.872Z,2.87
2023-04-25T03:56:10.905Z,2.13
2023-04-25T03:58:37.838Z,2.43
2023-04-25T04:01:08.459Z,3.63
2023-04-25T04:03:37.482Z,2.47
2023-04-25T04:06:06.649Z,2.57
2023-04-25T04:08:34.349Z,3.00
2023-04-25T04:11:01.731Z,2.40
2023-04-25T04:13:29.394Z,4.37
2023-04-25T04:15:56.725Z,2.53
2023-04-25T04:18:23.704Z,2.40
2023-04-25T04:20:50.868Z,3.03
2023-04-25T04:23:17.789Z,2.97
2023-04-25T04:25:44.808Z,5.33
2023-04-25T04:28:12.199Z,4.40
2023-04-25T04:30:40.255Z,4.13
2023-04-25T04:33:08.471Z,4.30
2023-04-25T04:35:35.577Z,4.03
2023-04-25T04:38:02.995Z,4.33
2023-04-25T04:40:32.271Z,4.43
2023-04-25T04:42:59.193Z,9.27
2023-04-25T04:45:26.286Z,4.10
2023-04-25T04:47:53.657Z,5.30
2023-04-25T04:50:21.097Z,5.23
2023-04-25T04:52:48.024Z,4.47
2023-04-25T04:55:14.899Z,5.03
2023-04-25T04:57:41.813Z,8.90
2023-04-25T05:00:11.882Z,5.77
2023-04-25T05:02:40.102Z,4.00
2023-04-25T05:05:07.655Z,5.47
2023-04-25T05:07:34.924Z,6.77
2023-04-25T05:10:02.615Z,6.37
2023-04-25T05:12:29.660Z,5.20
2023-04-25T05:14:56.713Z,4.57
2023-04-25T05:17:23.661Z,5.63
2023-04-25T05:19:50.987Z,5.73
2023-04-25T05:22:17.926Z,6.90
2023-04-25T05:24:45.226Z,6.57
2023-04-25T05:27:12.250Z,7.73
2023-04-25T05:29:39.290Z,6.30
2023-04-25T05:32:06.622Z,5.30
2023-04-25T05:34:33.546Z,6.03
2023-04-25T05:37:00.491Z,6.20
2023-04-25T05:39:27.825Z,7.17
2023-04-25T05:41:54.808Z,4.60
2023-04-25T05:44:22.768Z,4.37
2023-04-25T05:46:50.063Z,4.77
2023-04-25T05:49:19.389Z,5.33
2023-04-25T05:51:46.555Z,5.43
2023-04-25T05:54:13.531Z,4.87
2023-04-25T05:56:40.501Z,4.10
2023-04-25T05:59:07.453Z,5.80
2023-04-25T06:01:34.421Z,4.27
2023-04-25T06:04:01.605Z,6.67
2023-04-25T06:06:28.761Z,3.60
2023-04-25T06:08:56.525Z,4.67
2023-04-25T06:11:23.613Z,4.20
2023-04-25T06:13:50.826Z,3.90
2023-04-25T06:16:18.014Z,5.93
2023-04-25T06:18:44.958Z,4.77
2023-04-25T06:21:11.835Z,8.20
2023-04-25T06:23:38.831Z,3.27
2023-04-25T06:26:05.720Z,3.40
2023-04-25T06:28:32.768Z,3.33
2023-04-25T06:30:59.659Z,4.07
2023-04-25T06:33:27.691Z,3.93
2023-04-25T06:35:54.711Z,6.63
2023-04-25T06:38:21.636Z,5.50
2023-04-25T06:40:48.549Z,5.00
2023-04-25T06:43:15.455Z,4.53
2023-04-25T06:45:44.444Z,7.60
2023-04-25T06:48:12.151Z,3.73
2023-04-25T06:50:39.085Z,4.83
2023-04-25T06:53:06.073Z,4.27
2023-04-25T06:55:33.029Z,6.97
2023-04-25T06:57:59.953Z,5.47
2023-04-25T07:00:27.228Z,6.93
2023-04-25T07:02:54.264Z,6.90
2023-04-25T07:05:21.900Z,4.93
2023-04-25T07:07:48.803Z,3.97
2023-04-25T07:10:16.354Z,6.37
2023-04-25T07:12:43.319Z,4.70
2023-04-25T07:15:11.675Z,4.00
2023-04-25T07:17:39.103Z,4.10
2023-04-25T07:20:07.185Z,4.97
2023-04-25T07:22:34.232Z,4.33
2023-04-25T07:25:01.377Z,5.40
2023-04-25T07:27:28.678Z,5.70
2023-04-25T07:29:55.768Z,4.40
2023-04-25T07:32:22.814Z,4.77
2023-04-25T07:34:49.877Z,3.93
2023-04-25T07:37:16.927Z,4.27
2023-04-25T07:39:43.922Z,4.57
2023-04-25T07:42:10.882Z,4.60
2023-04-25T07:44:39.792Z,4.13
2023-04-25T07:47:10.940Z,4.97
2023-04-25T07:49:38.467Z,7.63
2023-04-25T07:52:09.765Z,4.60
2023-04-25T07:54:36.799Z,4.63
2023-04-25T07:57:03.799Z,6.03
2023-04-25T07:59:30.834Z,5.10
2023-04-25T08:01:58.575Z,3.77
2023-04-25T08:04:26.882Z,3.63
2023-04-25T08:06:57.532Z,4.43
2023-04-25T08:09:24.492Z,4.83
2023-04-25T08:11:51.504Z,4.73
2023-04-25T08:14:18.528Z,4.30
2023-04-25T08:16:45.695Z,6.73
2023-04-25T08:19:13.229Z,5.70
2023-04-25T08:21:40.270Z,4.80
2023-04-25T08:24:07.315Z,6.10
2023-04-25T08:26:35.454Z,5.53
2023-04-25T08:29:02.439Z,4.50
2023-04-25T08:31:29.528Z,7.63
2023-04-25T08:33:56.510Z,4.83
2023-04-25T08:36:35.550Z,5.63
2023-04-25T08:39:05.357Z,8.97
2023-04-25T08:41:32.768Z,6.33
2023-04-25T08:44:02.105Z,5.77
2023-04-25T08:46:32.105Z,5.30
2023-04-25T08:49:03.335Z,6.50
2023-04-25T08:51:33.215Z,6.23
2023-04-25T08:56:48.937Z,6.70
2023-04-25T08:59:15.999Z,8.07
2023-04-25T09:01:43.022Z,7.73
2023-04-25T09:04:10.226Z,8.87
2023-04-25T09:06:37.299Z,9.40
2023-04-25T09:09:09.277Z,8.63
2023-04-25T09:11:37.633Z,10.10
2023-04-25T09:14:21.626Z,8.80
2023-04-25T09:17:14.708Z,8.83
2023-04-25T09:19:42.163Z,8.97
2023-04-25T09:22:09.696Z,8.93
2023-04-25T09:24:42.709Z,9.87
2023-04-25T09:27:14.354Z,7.67
2023-04-25T09:29:43.130Z,11.50
2023-04-25T09:32:14.169Z,10.37
2023-04-25T09:34:42.913Z,11.27
2023-04-25T09:37:13.512Z,10.03
2023-04-25T09:39:40.773Z,9.67
2023-04-25T09:42:07.831Z,13.60
2023-04-25T09:44:34.825Z,10.37
2023-04-25T09:47:03.903Z,8.57
2023-04-25T09:49:30.880Z,9.57
2023-04-25T09:51:58.801Z,10.13
2023-04-25T09:54:26.370Z,8.13
2023-04-25T09:56:54.823Z,9.87
2023-04-25T09:59:23.815Z,8.70
2023-04-25T10:01:53.756Z,8.20
2023-04-25T10:04:27.185Z,8.13
2023-04-25T10:06:56.016Z,10.07
2023-04-25T10:09:26.572Z,8.30
2023-04-25T10:11:55.814Z,7.50
2023-04-25T10:14:23.404Z,8.53
2023-04-25T10:16:50.794Z,11.10
2023-04-25T10:19:18.846Z,7.27
2023-04-25T10:22:15.610Z,8.47
2023-04-25T10:24:43.779Z,6.90
2023-04-25T10:27:11.516Z,7.80
2023-04-25T10:29:38.415Z,7.57
2023-04-25T10:32:05.875Z,8.10
2023-04-25T10:34:49.566Z,6.80
2023-04-25T10:37:16.521Z,7.47
2023-04-25T10:39:44.732Z,8.33
2023-04-25T10:42:12.520Z,9.27
2023-04-25T10:44:42.420Z,7.13
2023-04-25T10:47:10.856Z,7.63
2023-04-25T10:49:42.123Z,21.23
2023-04-25T10:52:26.682Z,7.20
2023-04-25T10:54:58.215Z,6.83
2023-04-25T10:57:49.553Z,8.53
2023-04-25T11:00:25.881Z,8.57
2023-04-25T11:03:01.154Z,7.23
2023-04-25T11:08:49.168Z,8.10
2023-04-25T11:11:18.462Z,7.53
2023-04-25T11:13:45.980Z,5.77
2023-04-25T11:14:37.765Z,7.57
2023-04-25T11:16:13.647Z,5.70
2023-04-25T11:18:50.654Z,6.50
2023-04-25T11:21:17.938Z,7.33
2023-04-25T11:23:48.055Z,6.40
2023-04-25T11:26:16.159Z,7.10
2023-04-25T11:28:46.594Z,5.93
2023-04-25T11:31:13.766Z,5.80
2023-04-25T11:33:41.891Z,6.60
2023-04-25T11:36:08.998Z,5.83
2023-04-25T11:38:36.077Z,5.87
2023-04-25T11:41:03.774Z,4.87
2023-04-25T11:43:31.233Z,4.90
2023-04-25T11:45:58.374Z,4.90
2023-04-25T11:48:26.341Z,4.43
2023-04-25T11:50:56.144Z,4.10
2023-04-25T11:53:25.025Z,4.87
2023-04-25T11:55:52.175Z,3.77
2023-04-25T11:58:20.574Z,4.47
2023-04-25T12:00:50.504Z,4.10
2023-04-25T12:03:19.589Z,4.07
2023-04-25T12:05:47.615Z,4.53
2023-04-25T12:08:17.102Z,4.93
2023-04-25T12:10:46.739Z,4.67
2023-04-25T12:13:24.464Z,5.33
2023-04-25T12:15:51.774Z,4.20
2023-04-25T12:18:24.694Z,4.07
2023-04-25T12:20:54.005Z,3.67
2023-04-25T12:23:28.534Z,3.90
2023-04-25T12:25:55.749Z,5.30
2023-04-25T12:28:25.552Z,5.53
2023-04-25T12:31:02.991Z,4.87
2023-04-25T12:33:40.772Z,5.13
2023-04-25T12:36:12.192Z,6.00
2023-04-25T12:38:43.176Z,5.70
2023-04-25T12:41:10.440Z,4.40
2023-04-25T12:43:37.351Z,4.17
2023-04-25T12:46:04.463Z,4.53
2023-04-25T12:48:31.489Z,5.10
2023-04-25T12:50:58.420Z,4.57
2023-04-25T12:53:25.496Z,4.23
2023-04-25T12:55:52.819Z,3.90
2023-04-25T12:58:21.018Z,3.77
2023-04-25T13:00:48.818Z,3.60
2023-04-25T13:03:15.985Z,3.90
2023-04-25T13:05:43.590Z,4.37
2023-04-25T13:08:10.689Z,4.30
2023-04-25T13:10:39.486Z,4.13
2023-04-25T13:13:06.536Z,4.30
2023-04-25T13:15:33.532Z,4.00
2023-04-25T13:18:00.652Z,4.77
2023-04-25T13:20:27.721Z,4.00
2023-04-25T13:22:54.604Z,3.87
2023-04-25T13:25:22.842Z,3.67
2023-04-25T13:27:49.868Z,4.93
2023-04-25T13:30:16.890Z,4.10
2023-04-25T13:32:43.858Z,3.27
2023-04-25T13:35:13.509Z,3.80
2023-04-25T13:37:40.724Z,3.83
2023-04-25T13:40:11.185Z,2.97
2023-04-25T13:42:39.230Z,4.23
2023-04-25T13:45:07.550Z,3.27
2023-04-25T13:47:35.544Z,2.60
2023-04-25T13:50:04.188Z,2.80
2023-04-25T13:52:31.276Z,2.97
2023-04-25T13:54:58.574Z,3.27
2023-04-25T13:57:26.394Z,3.23
2023-04-25T13:59:54.059Z,4.40
2023-04-25T14:02:21.127Z,3.50
2023-04-25T14:04:48.161Z,4.77
2023-04-25T14:07:18.931Z,3.10
2023-04-25T14:09:45.854Z,3.03
2023-04-25T14:12:13.031Z,3.37
2023-04-25T14:14:39.970Z,3.20
2023-04-25T14:17:07.846Z,3.23
2023-04-25T14:19:34.928Z,3.23
2023-04-25T14:22:01.896Z,2.93
2023-04-25T14:24:28.832Z,3.40
2023-04-25T14:26:55.780Z,3.90
2023-04-25T14:29:22.690Z,4.10
2023-04-25T14:31:49.839Z,3.50
2023-04-25T14:34:16.914Z,3.17
2023-04-25T14:36:43.856Z,3.47
2023-04-25T14:39:11.146Z,3.20
2023-04-25T14:41:38.587Z,2.43
2023-04-25T14:44:05.678Z,2.20
2023-04-25T14:46:32.695Z,3.00
2023-04-25T14:48:59.753Z,4.53
2023-04-25T14:51:27.536Z,1.93
2023-04-25T14:53:54.699Z,3.47
2023-04-25T14:56:21.768Z,3.33
2023-04-25T14:58:48.804Z,2.57
2023-04-25T15:01:16.251Z,3.47
2023-04-25T15:03:43.573Z,2.70
2023-04-25T15:06:10.973Z,2.37
2023-04-25T15:08:37.956Z,2.63
2023-04-25T15:11:05.182Z,2.70
2023-04-25T15:13:32.772Z,4.23
2023-04-25T15:16:00.795Z,5.07
2023-04-25T15:18:27.726Z,3.00
2023-04-25T15:20:55.020Z,2.03
2023-04-25T15:23:22.610Z,3.43
2023-04-25T15:25:52.147Z,4.63
2023-04-25T15:28:19.884Z,3.40
2023-04-25T15:30:46.914Z,3.20
2023-04-25T15:33:14.564Z,3.00
2023-04-25T15:35:41.699Z,3.53
2023-04-25T15:38:09.574Z,3.10
2023-04-25T15:40:36.672Z,3.37
2023-04-25T15:43:03.732Z,4.17
2023-04-25T15:45:32.509Z,4.43
2023-04-25T15:47:59.645Z,4.37
2023-04-25T15:50:27.162Z,5.37
2023-04-25T15:52:54.236Z,4.00
2023-04-25T15:55:21.935Z,5.57
2023-04-25T15:57:49.768Z,4.97
2023-04-25T16:00:22.063Z,5.33
2023-04-25T16:02:49.174Z,5.47
2023-04-25T16:05:17.350Z,5.83
2023-04-25T16:07:45.832Z,5.03
2023-04-25T16:10:14.293Z,6.83
2023-04-25T16:12:41.752Z,6.97
2023-04-25T16:15:09.313Z,7.90
2023-04-25T16:17:36.380Z,7.33
2023-04-25T16:20:09.901Z,8.73
2023-04-25T16:22:38.618Z,8.40
2023-04-25T16:25:06.286Z,8.47
2023-04-25T16:27:34.803Z,10.20
2023-04-25T16:30:02.827Z,8.87
2023-04-25T16:32:29.819Z,11.10
2023-04-25T16:34:58.838Z,11.10
2023-04-25T16:37:26.514Z,10.47
2023-04-25T16:39:53.678Z,10.10
2023-04-25T16:42:20.706Z,10.37
2023-04-25T16:44:47.616Z,11.90
2023-04-25T16:47:18.689Z,11.70
2023-04-25T16:49:47.094Z,13.53
2023-04-25T16:52:15.108Z,9.93
2023-04-25T16:54:42.022Z,11.77
2023-04-25T16:57:11.126Z,9.97
2023-04-25T16:59:39.358Z,12.83
2023-04-25T17:02:10.729Z,11.17
2023-04-25T17:04:38.218Z,13.60
2023-04-25T17:07:05.658Z,13.03
2023-04-25T17:09:32.988Z,14.57
2023-04-25T17:12:00.376Z,15.53
2023-04-25T17:14:27.519Z,13.87
2023-04-25T17:16:54.471Z,12.27
2023-04-25T17:19:21.634Z,10.60
2023-04-25T17:21:48.752Z,12.17
2023-04-25T17:24:16.030Z,12.30
2023-04-25T17:26:42.990Z,13.13
2023-04-25T17:29:10.471Z,13.23
2023-04-25T17:31:37.933Z,16.93
2023-04-25T17:34:05.207Z,12.77
2023-04-25T17:36:32.760Z,16.57
2023-04-25T17:38:59.951Z,13.47
2023-04-25T17:41:26.878Z,17.50
2023-04-25T17:43:53.821Z,16.33
2023-04-25T17:46:21.388Z,19.80
2023-04-25T17:48:48.712Z,17.80
2023-04-25T17:51:15.674Z,17.17
2023-04-25T17:53:42.692Z,19.17
2023-04-25T17:56:25.377Z,17.07
2023-04-25T17:58:53.374Z,17.53
2023-04-25T18:01:20.706Z,18.33
2023-04-25T18:03:49.938Z,14.40
2023-04-25T18:06:18.380Z,14.90
2023-04-25T18:08:46.049Z,14.83
2023-04-25T18:11:13.149Z,16.60
2023-04-25T18:13:40.804Z,14.93
2023-04-25T18:16:08.042Z,13.00
2023-04-25T18:18:36.301Z,13.43
2023-04-25T18:21:05.568Z,12.60
2023-04-25T18:23:35.946Z,14.37
2023-04-25T18:26:04.300Z,21.57
2023-04-25T18:28:31.649Z,19.40
2023-04-25T18:30:59.150Z,14.77
2023-04-25T18:33:26.094Z,18.17
2023-04-25T18:38:34.969Z,19.93
2023-04-25T18:41:18.355Z,17.73
2023-04-25T18:43:57.589Z,17.20
2023-04-25T18:46:24.876Z,14.13
2023-04-25T18:48:55.640Z,14.57
2023-04-25T18:51:23.600Z,14.80
2023-04-25T18:53:50.719Z,13.07
2023-04-25T18:56:18.939Z,12.40
2023-04-25T18:58:45.999Z,13.03
2023-04-25T19:01:13.281Z,11.70
2023-04-25T19:03:41.264Z,10.77
2023-04-25T19:06:08.462Z,9.40
2023-04-25T19:08:35.406Z,9.00
2023-04-25T19:11:10.880Z,8.90
2023-04-25T19:13:48.145Z,8.77
2023-04-25T19:16:15.561Z,7.17
2023-04-25T19:18:42.647Z,8.10
2023-04-25T19:21:09.874Z,5.77
2023-04-25T19:23:36.880Z,7.40
2023-04-25T19:26:04.774Z,6.80
2023-04-25T19:28:32.251Z,6.63
2023-04-25T19:30:59.765Z,10.10
2023-04-25T19:33:26.739Z,7.40
2023-04-25T19:35:54.506Z,7.67
2023-04-25T19:38:21.406Z,10.10
2023-04-25T19:40:49.494Z,6.10
2023-04-25T19:43:16.437Z,6.27
2023-04-25T19:45:43.482Z,8.37
2023-04-25T19:48:10.749Z,12.60
2023-04-25T19:50:37.768Z,4.83
2023-04-25T19:53:04.675Z,6.03
2023-04-25T19:55:32.050Z,9.97
2023-04-25T19:57:59.004Z,3.80
2023-04-25T20:00:26.901Z,3.20
2023-04-25T20:02:54.284Z,5.90
2023-04-25T20:05:21.381Z,14.33
2023-04-25T20:07:48.303Z,11.33
2023-04-25T20:10:16.505Z,11.50
2023-04-25T20:12:44.791Z,12.17
2023-04-25T20:15:12.331Z,23.37
2023-04-25T20:17:40.361Z,15.33
2023-04-25T20:20:09.975Z,6.43
2023-04-25T20:22:38.739Z,9.10
2023-04-25T20:25:08.132Z,28.20
2023-04-25T20:27:37.815Z,20.37
2023-04-25T20:30:08.132Z,11.27
2023-04-25T20:32:36.297Z,13.43
2023-04-25T20:35:09.241Z,23.37
2023-04-25T20:37:36.423Z,14.33
2023-04-25T20:40:05.940Z,15.00
2023-04-25T20:42:32.961Z,15.57
2023-04-25T20:45:00.785Z,12.70
2023-04-25T20:47:28.341Z,18.90
2023-04-25T20:49:55.682Z,10.37
2023-04-25T20:52:22.850Z,13.80
2023-04-25T20:54:50.715Z,20.77
2023-04-25T20:57:17.899Z,9.77
2023-04-25T20:59:44.917Z,24.00
2023-04-25T21:02:15.707Z,15.30
2023-04-25T21:04:46.560Z,6.27
2023-04-25T21:07:13.534Z,24.73
2023-04-25T21:09:45.568Z,26.17
2023-04-25T21:12:12.640Z,18.47
2023-04-25T21:14:39.620Z,13.83
2023-04-25T21:17:06.625Z,25.03
2023-04-25T21:19:34.004Z,48.43
2023-04-25T21:22:02.273Z,51.67
2023-04-25T21:24:31.173Z,26.13
2023-04-25T21:26:58.153Z,31.57
2023-04-25T21:29:25.148Z,15.20
2023-04-25T21:31:53.008Z,48.40
2023-04-25T21:34:19.977Z,43.57
2023-04-25T21:36:46.921Z,35.37
2023-04-25T21:39:15.024Z,47.90
2023-04-25T21:41:44.308Z,26.73
2023-04-25T21:44:12.654Z,45.77
2023-04-25T21:46:39.693Z,28.97
2023-04-25T21:49:07.122Z,61.83
2023-04-25T21:51:34.595Z,39.93
2023-04-25T21:54:05.305Z,48.90
2023-04-25T21:56:33.076Z,67.17
2023-04-25T21:59:00.110Z,58.63
2023-04-25T22:01:27.852Z,18.10
2023-04-25T22:03:55.228Z,20.77
2023-04-25T22:06:22.318Z,42.53
2023-04-25T22:08:49.518Z,71.77
2023-04-25T22:11:17.293Z,59.20
2023-04-25T22:13:45.142Z,38.10
2023-04-25T22:16:12.416Z,17.60
2023-04-25T22:18:40.758Z,28.10
2023-04-25T22:21:08.660Z,23.47
2023-04-25T22:23:37.265Z,62.33
2023-04-25T22:26:04.866Z,28.73
2023-04-25T22:28:33.090Z,73.77
2023-04-25T22:31:00.123Z,29.23
2023-04-25T22:33:27.450Z,32.10
2023-04-25T22:35:54.398Z,86.70
2023-04-25T22:38:21.568Z,67.87
2023-04-25T22:40:48.531Z,42.13
2023-04-25T22:43:15.905Z,48.40
2023-04-25T22:45:42.973Z,203.50
2023-04-25T22:48:10.057Z,191.30
2023-04-25T22:50:39.758Z,70.03
2023-04-25T22:53:13.270Z,33.17
2023-04-25T22:55:40.188Z,52.73
2023-04-25T22:58:09.380Z,13.10
2023-04-25T23:00:37.644Z,84.70
2023-04-25T23:03:06.003Z,52.30
2023-04-25T23:05:33.257Z,74.57
2023-04-25T23:08:00.353Z,119.27
2023-04-25T23:10:28.676Z,20.40
2023-04-25T23:12:58.158Z,28.43
2023-04-25T23:15:27.699Z,77.20
2023-04-25T23:17:54.905Z,29.57
2023-04-25T23:20:21.904Z,26.10
2023-04-25T23:22:49.109Z,74.13
2023-04-25T23:25:16.794Z,28.60
2023-04-25T23:27:43.789Z,23.30
2023-04-25T23:30:11.372Z,20.07
2023-04-25T23:32:38.982Z,18.73
2023-04-25T23:35:06.777Z,20.93
2023-04-25T23:37:37.661Z,14.63
2023-04-25T23:40:08.606Z,13.13
2023-04-25T23:42:39.999Z,15.73
2023-04-25T23:45:08.407Z,14.30
2023-04-25T23:47:36.311Z,13.47
2023-04-25T23:50:04.432Z,14.77
2023-04-25T23:52:32.136Z,16.80
2023-04-25T23:54:59.119Z,19.37
2023-04-25T23:57:26.227Z,17.07
2023-04-25T23:59:53.264Z,17.93
